sensor_id;sensor_type;location;lat;lon;timestamp;temperature;humidity
81630;DHT22;71039;49.500;10.418;2024-03-23T00:54:47;11.90;49.50
81630;DHT22;71039;49.500;10.418;2024-03-23T00:57:12;11.90;49.50
81630;DHT22;71039;49.500;10.418;2024-03-23T00:59:38;11.90;49.50
81630;DHT22;71039;49.500;10.418;2024-03-23T01:02:03;11.90;49.60
81630;DHT22;71039;49.500;10.418;2024-03-23T01:04:29;11.90;49.60
81630;DHT22;71039;49.500;10.418;2024-03-23T01:06:54;11.90;49.60
81630;DHT22;71039;49.500;10.418;2024-03-23T01:09:20;11.90;49.70
81630;DHT22;71039;49.500;10.418;2024-03-23T01:11:45;11.90;49.70
81630;DHT22;71039;49.500;10.418;2024-03-23T01:14:11;11.90;49.70
81630;DHT22;71039;49.500;10.418;2024-03-23T01:16:36;12.00;49.70
81630;DHT22;71039;49.500;10.418;2024-03-23T01:19:02;12.00;49.80
81630;DHT22;71039;49.500;10.418;2024-03-23T01:21:27;12.00;49.70
81630;DHT22;71039;49.500;10.418;2024-03-23T01:23:53;11.90;49.80
81630;DHT22;71039;49.500;10.418;2024-03-23T01:26:18;12.00;49.90
81630;DHT22;71039;49.500;10.418;2024-03-23T01:28:44;11.90;50.00
81630;DHT22;71039;49.500;10.418;2024-03-23T01:31:09;11.90;50.00
81630;DHT22;71039;49.500;10.418;2024-03-23T01:33:35;12.00;50.00
81630;DHT22;71039;49.500;10.418;2024-03-23T01:36:00;12.00;50.10
81630;DHT22;71039;49.500;10.418;2024-03-23T01:38:26;12.00;50.10
81630;DHT22;71039;49.500;10.418;2024-03-23T01:40:57;12.00;50.10
81630;DHT22;71039;49.500;10.418;2024-03-23T01:43:22;12.00;50.30
81630;DHT22;71039;49.500;10.418;2024-03-23T01:45:47;12.00;50.20
81630;DHT22;71039;49.500;10.418;2024-03-23T01:48:13;12.00;50.20
81630;DHT22;71039;49.500;10.418;2024-03-23T01:50:39;12.00;50.20
81630;DHT22;71039;49.500;10.418;2024-03-23T01:53:05;12.00;50.20
81630;DHT22;71039;49.500;10.418;2024-03-23T01:55:31;12.00;50.20
81630;DHT22;71039;49.500;10.418;2024-03-23T01:57:57;12.00;50.20
81630;DHT22;71039;49.500;10.418;2024-03-23T02:00:23;12.00;50.20
81630;DHT22;71039;49.500;10.418;2024-03-23T02:02:48;12.00;50.30
81630;DHT22;71039;49.500;10.418;2024-03-23T02:05:14;12.00;50.30
81630;DHT22;71039;49.500;10.418;2024-03-23T02:07:40;12.00;50.30
81630;DHT22;71039;49.500;10.418;2024-03-23T02:10:07;12.00;50.40
81630;DHT22;71039;49.500;10.418;2024-03-23T02:12:33;12.00;50.50
81630;DHT22;71039;49.500;10.418;2024-03-23T02:14:59;12.00;50.40
81630;DHT22;71039;49.500;10.418;2024-03-23T02:17:25;12.00;50.40
81630;DHT22;71039;49.500;10.418;2024-03-23T02:19:50;12.10;50.40
81630;DHT22;71039;49.500;10.418;2024-03-23T02:22:16;12.10;50.40
81630;DHT22;71039;49.500;10.418;2024-03-23T02:24:42;12.10;50.40
81630;DHT22;71039;49.500;10.418;2024-03-23T02:27:09;12.00;50.40
81630;DHT22;71039;49.500;10.418;2024-03-23T02:29:34;12.10;50.40
81630;DHT22;71039;49.500;10.418;2024-03-23T02:32:00;12.10;50.50
81630;DHT22;71039;49.500;10.418;2024-03-23T02:34:25;12.10;50.50
81630;DHT22;71039;49.500;10.418;2024-03-23T02:36:51;12.10;50.50
81630;DHT22;71039;49.500;10.418;2024-03-23T02:39:16;12.10;50.60
81630;DHT22;71039;49.500;10.418;2024-03-23T02:41:42;12.10;50.50
81630;DHT22;71039;49.500;10.418;2024-03-23T02:44:07;12.10;50.60
81630;DHT22;71039;49.500;10.418;2024-03-23T02:46:33;12.10;50.70
81630;DHT22;71039;49.500;10.418;2024-03-23T02:48:59;12.10;50.70
81630;DHT22;71039;49.500;10.418;2024-03-23T02:51:24;12.20;50.70
81630;DHT22;71039;49.500;10.418;2024-03-23T02:53:50;12.20;50.70
81630;DHT22;71039;49.500;10.418;2024-03-23T02:56:15;12.20;50.80
81630;DHT22;71039;49.500;10.418;2024-03-23T02:58:41;12.30;50.80
81630;DHT22;71039;49.500;10.418;2024-03-23T03:01:06;12.30;50.80
81630;DHT22;71039;49.500;10.418;2024-03-23T03:03:32;12.30;50.80
81630;DHT22;71039;49.500;10.418;2024-03-23T03:05:57;12.40;50.80
81630;DHT22;71039;49.500;10.418;2024-03-23T03:08:23;12.40;50.70
81630;DHT22;71039;49.500;10.418;2024-03-23T03:10:48;12.50;50.70
81630;DHT22;71039;49.500;10.418;2024-03-23T03:13:14;12.50;50.60
81630;DHT22;71039;49.500;10.418;2024-03-23T03:15:46;12.50;50.50
81630;DHT22;71039;49.500;10.418;2024-03-23T03:18:11;12.50;50.60
81630;DHT22;71039;49.500;10.418;2024-03-23T03:20:38;12.50;50.50
81630;DHT22;71039;49.500;10.418;2024-03-23T03:23:04;12.50;50.40
81630;DHT22;71039;49.500;10.418;2024-03-23T03:25:29;12.50;50.30
81630;DHT22;71039;49.500;10.418;2024-03-23T03:27:55;12.50;50.20
81630;DHT22;71039;49.500;10.418;2024-03-23T03:30:20;12.50;50.20
81630;DHT22;71039;49.500;10.418;2024-03-23T03:32:46;12.40;50.10
81630;DHT22;71039;49.500;10.418;2024-03-23T03:35:11;12.40;50.20
81630;DHT22;71039;49.500;10.418;2024-03-23T03:37:37;12.40;50.10
81630;DHT22;71039;49.500;10.418;2024-03-23T03:40:03;12.30;50.10
81630;DHT22;71039;49.500;10.418;2024-03-23T03:42:28;12.30;50.20
81630;DHT22;71039;49.500;10.418;2024-03-23T03:44:54;12.30;50.20
81630;DHT22;71039;49.500;10.418;2024-03-23T03:47:19;12.30;50.20
81630;DHT22;71039;49.500;10.418;2024-03-23T03:49:45;12.20;50.30
81630;DHT22;71039;49.500;10.418;2024-03-23T03:52:10;12.20;50.40
81630;DHT22;71039;49.500;10.418;2024-03-23T03:54:36;12.20;50.50
81630;DHT22;71039;49.500;10.418;2024-03-23T03:57:01;12.20;50.50
81630;DHT22;71039;49.500;10.418;2024-03-23T03:59:27;12.20;50.60
81630;DHT22;71039;49.500;10.418;2024-03-23T04:01:52;12.20;50.70
81630;DHT22;71039;49.500;10.418;2024-03-23T04:04:18;12.10;50.80
81630;DHT22;71039;49.500;10.418;2024-03-23T04:06:44;12.20;50.90
81630;DHT22;71039;49.500;10.418;2024-03-23T04:09:09;12.20;50.90
81630;DHT22;71039;49.500;10.418;2024-03-23T04:11:35;12.20;51.00
81630;DHT22;71039;49.500;10.418;2024-03-23T04:14:00;12.20;51.10
81630;DHT22;71039;49.500;10.418;2024-03-23T04:16:33;12.30;51.10
81630;DHT22;71039;49.500;10.418;2024-03-23T04:18:59;12.30;51.10
81630;DHT22;71039;49.500;10.418;2024-03-23T04:21:24;12.30;51.20
81630;DHT22;71039;49.500;10.418;2024-03-23T04:23:50;12.30;51.20
81630;DHT22;71039;49.500;10.418;2024-03-23T04:26:15;12.40;51.30
81630;DHT22;71039;49.500;10.418;2024-03-23T04:28:41;12.50;51.40
81630;DHT22;71039;49.500;10.418;2024-03-23T04:31:07;12.50;51.40
81630;DHT22;71039;49.500;10.418;2024-03-23T04:33:32;12.50;51.40
81630;DHT22;71039;49.500;10.418;2024-03-23T04:35:58;12.50;51.50
81630;DHT22;71039;49.500;10.418;2024-03-23T04:38:23;12.50;51.60
81630;DHT22;71039;49.500;10.418;2024-03-23T04:40:59;12.50;51.70
81630;DHT22;71039;49.500;10.418;2024-03-23T04:43:26;12.50;52.10
81630;DHT22;71039;49.500;10.418;2024-03-23T04:45:51;12.50;51.90
81630;DHT22;71039;49.500;10.418;2024-03-23T04:48:21;12.50;52.00
81630;DHT22;71039;49.500;10.418;2024-03-23T04:50:46;12.60;52.10
81630;DHT22;71039;49.500;10.418;2024-03-23T04:53:12;12.60;52.10
81630;DHT22;71039;49.500;10.418;2024-03-23T04:55:38;12.60;52.20
81630;DHT22;71039;49.500;10.418;2024-03-23T04:58:04;12.70;52.20
81630;DHT22;71039;49.500;10.418;2024-03-23T05:00:29;12.70;52.30
81630;DHT22;71039;49.500;10.418;2024-03-23T05:02:55;12.70;52.20
81630;DHT22;71039;49.500;10.418;2024-03-23T05:05:20;12.80;52.20
81630;DHT22;71039;49.500;10.418;2024-03-23T05:07:46;12.80;52.20
81630;DHT22;71039;49.500;10.418;2024-03-23T05:10:11;12.80;52.20
81630;DHT22;71039;49.500;10.418;2024-03-23T05:12:37;12.80;52.20
81630;DHT22;71039;49.500;10.418;2024-03-23T05:15:04;12.80;52.20
81630;DHT22;71039;49.500;10.418;2024-03-23T05:17:30;12.80;52.20
81630;DHT22;71039;49.500;10.418;2024-03-23T05:19:56;12.90;52.20
81630;DHT22;71039;49.500;10.418;2024-03-23T05:22:21;12.80;52.30
81630;DHT22;71039;49.500;10.418;2024-03-23T05:24:47;12.90;52.30
81630;DHT22;71039;49.500;10.418;2024-03-23T05:27:12;12.90;52.50
81630;DHT22;71039;49.500;10.418;2024-03-23T05:29:38;12.90;52.50
81630;DHT22;71039;49.500;10.418;2024-03-23T05:32:04;12.90;52.50
81630;DHT22;71039;49.500;10.418;2024-03-23T05:34:29;12.90;52.60
81630;DHT22;71039;49.500;10.418;2024-03-23T05:36:55;12.90;52.60
81630;DHT22;71039;49.500;10.418;2024-03-23T05:39:20;13.00;52.80
81630;DHT22;71039;49.500;10.418;2024-03-23T05:41:46;13.00;52.80
81630;DHT22;71039;49.500;10.418;2024-03-23T05:44:11;13.00;52.80
81630;DHT22;71039;49.500;10.418;2024-03-23T05:46:37;13.00;52.90
81630;DHT22;71039;49.500;10.418;2024-03-23T05:49:02;13.10;52.90
81630;DHT22;71039;49.500;10.418;2024-03-23T05:51:28;13.10;52.90
81630;DHT22;71039;49.500;10.418;2024-03-23T05:53:53;13.10;52.90
81630;DHT22;71039;49.500;10.418;2024-03-23T05:56:19;13.10;52.90
81630;DHT22;71039;49.500;10.418;2024-03-23T05:58:45;13.10;53.00
81630;DHT22;71039;49.500;10.418;2024-03-23T06:01:10;13.10;53.00
81630;DHT22;71039;49.500;10.418;2024-03-23T06:03:36;13.10;53.00
81630;DHT22;71039;49.500;10.418;2024-03-23T06:06:02;13.20;53.00
81630;DHT22;71039;49.500;10.418;2024-03-23T06:08:27;13.20;53.00
81630;DHT22;71039;49.500;10.418;2024-03-23T06:10:53;13.30;53.10
81630;DHT22;71039;49.500;10.418;2024-03-23T06:13:18;13.30;53.10
81630;DHT22;71039;49.500;10.418;2024-03-23T06:15:44;13.30;53.10
81630;DHT22;71039;49.500;10.418;2024-03-23T06:18:09;13.30;53.10
81630;DHT22;71039;49.500;10.418;2024-03-23T06:20:35;13.30;53.10
81630;DHT22;71039;49.500;10.418;2024-03-23T06:23:01;13.30;53.00
81630;DHT22;71039;49.500;10.418;2024-03-23T06:25:26;13.30;53.00
81630;DHT22;71039;49.500;10.418;2024-03-23T06:27:52;13.30;52.90
81630;DHT22;71039;49.500;10.418;2024-03-23T06:30:17;13.30;53.00
81630;DHT22;71039;49.500;10.418;2024-03-23T06:32:43;13.30;53.00
81630;DHT22;71039;49.500;10.418;2024-03-23T06:35:08;13.30;53.00
81630;DHT22;71039;49.500;10.418;2024-03-23T06:37:37;13.30;52.80
81630;DHT22;71039;49.500;10.418;2024-03-23T06:40:03;13.30;52.90
81630;DHT22;71039;49.500;10.418;2024-03-23T06:42:29;13.30;52.80
81630;DHT22;71039;49.500;10.418;2024-03-23T06:44:54;13.30;52.80
81630;DHT22;71039;49.500;10.418;2024-03-23T06:47:20;13.30;52.80
81630;DHT22;71039;49.500;10.418;2024-03-23T06:49:45;13.30;52.70
81630;DHT22;71039;49.500;10.418;2024-03-23T06:52:11;13.30;52.70
81630;DHT22;71039;49.500;10.418;2024-03-23T06:54:36;13.30;52.80
81630;DHT22;71039;49.500;10.418;2024-03-23T06:57:02;13.30;52.80
81630;DHT22;71039;49.500;10.418;2024-03-23T06:59:27;13.30;52.80
81630;DHT22;71039;49.500;10.418;2024-03-23T07:01:53;13.30;52.80
81630;DHT22;71039;49.500;10.418;2024-03-23T07:04:18;13.30;52.70
81630;DHT22;71039;49.500;10.418;2024-03-23T07:06:45;13.30;52.70
81630;DHT22;71039;49.500;10.418;2024-03-23T07:09:10;13.30;52.80
81630;DHT22;71039;49.500;10.418;2024-03-23T07:11:36;13.30;52.70
81630;DHT22;71039;49.500;10.418;2024-03-23T07:14:02;13.20;52.70
81630;DHT22;71039;49.500;10.418;2024-03-23T07:16:28;13.20;52.80
81630;DHT22;71039;49.500;10.418;2024-03-23T07:18:53;13.20;52.90
81630;DHT22;71039;49.500;10.418;2024-03-23T07:21:19;13.20;52.90
81630;DHT22;71039;49.500;10.418;2024-03-23T07:23:44;13.10;53.00
81630;DHT22;71039;49.500;10.418;2024-03-23T07:26:10;13.10;53.10
81630;DHT22;71039;49.500;10.418;2024-03-23T07:28:36;13.20;53.10
81630;DHT22;71039;49.500;10.418;2024-03-23T07:33:32;13.20;53.20
81630;DHT22;71039;49.500;10.418;2024-03-23T07:35:58;13.20;53.10
81630;DHT22;71039;49.500;10.418;2024-03-23T07:38:24;13.20;53.20
81630;DHT22;71039;49.500;10.418;2024-03-23T07:40:49;13.20;53.30
81630;DHT22;71039;49.500;10.418;2024-03-23T07:43:15;13.20;53.00
81630;DHT22;71039;49.500;10.418;2024-03-23T07:45:40;13.10;52.80
81630;DHT22;71039;49.500;10.418;2024-03-23T07:48:06;13.10;52.80
81630;DHT22;71039;49.500;10.418;2024-03-23T07:50:31;13.00;52.40
81630;DHT22;71039;49.500;10.418;2024-03-23T07:52:57;12.90;52.80
81630;DHT22;71039;49.500;10.418;2024-03-23T07:55:22;12.80;52.70
81630;DHT22;71039;49.500;10.418;2024-03-23T07:57:49;12.70;52.90
81630;DHT22;71039;49.500;10.418;2024-03-23T08:00:16;12.50;53.10
81630;DHT22;71039;49.500;10.418;2024-03-23T08:02:41;12.50;53.00
81630;DHT22;71039;49.500;10.418;2024-03-23T08:05:07;12.30;53.00
81630;DHT22;71039;49.500;10.418;2024-03-23T08:07:32;12.30;53.00
81630;DHT22;71039;49.500;10.418;2024-03-23T08:09:58;12.10;53.00
81630;DHT22;71039;49.500;10.418;2024-03-23T08:12:23;12.10;53.10
81630;DHT22;71039;49.500;10.418;2024-03-23T08:14:49;12.00;53.20
81630;DHT22;71039;49.500;10.418;2024-03-23T08:17:14;11.90;53.40
81630;DHT22;71039;49.500;10.418;2024-03-23T08:19:40;11.90;53.50
81630;DHT22;71039;49.500;10.418;2024-03-23T08:22:05;11.80;53.70
81630;DHT22;71039;49.500;10.418;2024-03-23T08:24:31;11.80;53.60
81630;DHT22;71039;49.500;10.418;2024-03-23T08:26:56;11.70;53.60
81630;DHT22;71039;49.500;10.418;2024-03-23T08:29:22;11.70;53.60
81630;DHT22;71039;49.500;10.418;2024-03-23T08:31:47;11.60;53.60
81630;DHT22;71039;49.500;10.418;2024-03-23T08:34:13;11.50;53.90
81630;DHT22;71039;49.500;10.418;2024-03-23T08:36:38;11.50;53.90
81630;DHT22;71039;49.500;10.418;2024-03-23T08:39:04;11.50;54.00
81630;DHT22;71039;49.500;10.418;2024-03-23T08:41:29;11.50;53.90
81630;DHT22;71039;49.500;10.418;2024-03-23T08:43:55;11.50;54.20
81630;DHT22;71039;49.500;10.418;2024-03-23T08:46:21;11.50;54.30
81630;DHT22;71039;49.500;10.418;2024-03-23T08:48:47;11.50;54.50
81630;DHT22;71039;49.500;10.418;2024-03-23T08:51:13;11.50;54.40
81630;DHT22;71039;49.500;10.418;2024-03-23T08:53:40;11.50;54.20
81630;DHT22;71039;49.500;10.418;2024-03-23T08:56:06;11.50;54.00
81630;DHT22;71039;49.500;10.418;2024-03-23T08:58:33;11.50;53.80
81630;DHT22;71039;49.500;10.418;2024-03-23T09:03:33;11.50;53.70
81630;DHT22;71039;49.500;10.418;2024-03-23T09:05:59;11.40;53.50
81630;DHT22;71039;49.500;10.418;2024-03-23T09:08:25;11.40;53.40
81630;DHT22;71039;49.500;10.418;2024-03-23T09:10:52;11.30;53.50
81630;DHT22;71039;49.500;10.418;2024-03-23T09:13:18;11.30;53.40
81630;DHT22;71039;49.500;10.418;2024-03-23T09:15:50;11.10;53.50
81630;DHT22;71039;49.500;10.418;2024-03-23T09:18:17;11.10;53.70
81630;DHT22;71039;49.500;10.418;2024-03-23T09:20:42;11.10;53.90
81630;DHT22;71039;49.500;10.418;2024-03-23T09:23:08;11.10;54.20
81630;DHT22;71039;49.500;10.418;2024-03-23T09:25:37;11.10;54.50
81630;DHT22;71039;49.500;10.418;2024-03-23T09:28:03;11.10;55.00
81630;DHT22;71039;49.500;10.418;2024-03-23T09:30:29;11.20;55.30
81630;DHT22;71039;49.500;10.418;2024-03-23T09:32:54;11.30;55.20
81630;DHT22;71039;49.500;10.418;2024-03-23T09:35:20;11.40;55.10
81630;DHT22;71039;49.500;10.418;2024-03-23T09:37:45;11.50;55.30
81630;DHT22;71039;49.500;10.418;2024-03-23T09:40:11;11.70;55.20
81630;DHT22;71039;49.500;10.418;2024-03-23T09:42:37;11.80;54.70
81630;DHT22;71039;49.500;10.418;2024-03-23T09:45:06;11.90;54.20
81630;DHT22;71039;49.500;10.418;2024-03-23T09:47:32;12.00;53.60
81630;DHT22;71039;49.500;10.418;2024-03-23T09:49:59;12.10;53.10
81630;DHT22;71039;49.500;10.418;2024-03-23T09:52:25;12.10;52.70
81630;DHT22;71039;49.500;10.418;2024-03-23T09:54:51;12.10;52.40
81630;DHT22;71039;49.500;10.418;2024-03-23T09:57:16;12.10;52.30
81630;DHT22;71039;49.500;10.418;2024-03-23T09:59:42;12.10;52.30
81630;DHT22;71039;49.500;10.418;2024-03-23T10:02:07;12.10;52.30
81630;DHT22;71039;49.500;10.418;2024-03-23T10:04:37;12.00;52.20
81630;DHT22;71039;49.500;10.418;2024-03-23T10:07:17;12.00;52.30
81630;DHT22;71039;49.500;10.418;2024-03-23T10:09:43;12.00;52.50
81630;DHT22;71039;49.500;10.418;2024-03-23T10:12:13;11.90;52.50
81630;DHT22;71039;49.500;10.418;2024-03-23T10:14:39;11.90;52.50
81630;DHT22;71039;49.500;10.418;2024-03-23T10:17:23;11.90;52.60
81630;DHT22;71039;49.500;10.418;2024-03-23T10:19:50;11.90;52.90
81630;DHT22;71039;49.500;10.418;2024-03-23T10:22:20;11.90;52.90
81630;DHT22;71039;49.500;10.418;2024-03-23T10:24:46;11.90;53.00
81630;DHT22;71039;49.500;10.418;2024-03-23T10:27:19;11.90;53.10
81630;DHT22;71039;49.500;10.418;2024-03-23T10:29:45;12.00;53.30
81630;DHT22;71039;49.500;10.418;2024-03-23T10:32:12;12.10;53.10
81630;DHT22;71039;49.500;10.418;2024-03-23T10:34:38;12.20;52.70
81630;DHT22;71039;49.500;10.418;2024-03-23T10:37:04;12.30;52.50
81630;DHT22;71039;49.500;10.418;2024-03-23T10:39:37;12.40;52.50
81630;DHT22;71039;49.500;10.418;2024-03-23T10:42:04;12.50;52.70
81630;DHT22;71039;49.500;10.418;2024-03-23T10:44:30;12.50;52.50
81630;DHT22;71039;49.500;10.418;2024-03-23T10:47:03;12.70;52.70
81630;DHT22;71039;49.500;10.418;2024-03-23T10:49:33;12.80;52.50
81630;DHT22;71039;49.500;10.418;2024-03-23T10:52:05;12.90;52.40
81630;DHT22;71039;49.500;10.418;2024-03-23T10:54:32;13.10;52.00
81630;DHT22;71039;49.500;10.418;2024-03-23T10:57:08;13.10;52.00
81630;DHT22;71039;49.500;10.418;2024-03-23T10:59:36;13.30;51.50
81630;DHT22;71039;49.500;10.418;2024-03-23T11:02:03;13.30;51.40
81630;DHT22;71039;49.500;10.418;2024-03-23T11:04:35;13.50;51.20
81630;DHT22;71039;49.500;10.418;2024-03-23T11:09:49;13.60;50.80
81630;DHT22;71039;49.500;10.418;2024-03-23T11:14:54;13.90;50.40
81630;DHT22;71039;49.500;10.418;2024-03-23T11:17:24;13.90;50.10
81630;DHT22;71039;49.500;10.418;2024-03-23T11:20:02;14.00;49.50
81630;DHT22;71039;49.500;10.418;2024-03-23T11:25:03;14.10;48.80
81630;DHT22;71039;49.500;10.418;2024-03-23T11:27:29;14.10;49.50
81630;DHT22;71039;49.500;10.418;2024-03-23T11:30:12;14.20;49.70
81630;DHT22;71039;49.500;10.418;2024-03-23T11:32:38;14.30;49.10
81630;DHT22;71039;49.500;10.418;2024-03-23T11:35:04;14.40;49.80
81630;DHT22;71039;49.500;10.418;2024-03-23T11:37:30;14.60;49.20
81630;DHT22;71039;49.500;10.418;2024-03-23T11:39:55;14.70;48.50
81630;DHT22;71039;49.500;10.418;2024-03-23T11:42:21;14.80;47.80
81630;DHT22;71039;49.500;10.418;2024-03-23T11:44:46;14.80;47.50
81630;DHT22;71039;49.500;10.418;2024-03-23T11:47:12;14.90;47.20
81630;DHT22;71039;49.500;10.418;2024-03-23T11:49:37;14.90;47.00
81630;DHT22;71039;49.500;10.418;2024-03-23T11:52:03;14.90;46.90
81630;DHT22;71039;49.500;10.418;2024-03-23T11:54:28;14.90;46.90
81630;DHT22;71039;49.500;10.418;2024-03-23T11:56:55;14.80;46.80
81630;DHT22;71039;49.500;10.418;2024-03-23T11:59:34;14.90;46.80
81630;DHT22;71039;49.500;10.418;2024-03-23T12:02:00;14.90;46.00
81630;DHT22;71039;49.500;10.418;2024-03-23T12:04:29;14.90;46.60
81630;DHT22;71039;49.500;10.418;2024-03-23T12:07:14;14.90;46.30
81630;DHT22;71039;49.500;10.418;2024-03-23T12:09:41;14.90;45.60
81630;DHT22;71039;49.500;10.418;2024-03-23T12:12:17;14.90;46.20
81630;DHT22;71039;49.500;10.418;2024-03-23T12:15:04;14.90;45.40
81630;DHT22;71039;49.500;10.418;2024-03-23T12:17:30;14.90;45.10
81630;DHT22;71039;49.500;10.418;2024-03-23T12:19:55;14.90;45.70
81630;DHT22;71039;49.500;10.418;2024-03-23T12:22:21;14.90;45.40
81630;DHT22;71039;49.500;10.418;2024-03-23T12:24:47;14.90;45.30
81630;DHT22;71039;49.500;10.418;2024-03-23T12:27:13;14.90;45.20
81630;DHT22;71039;49.500;10.418;2024-03-23T12:29:38;14.90;45.00
81630;DHT22;71039;49.500;10.418;2024-03-23T12:32:04;14.90;45.00
81630;DHT22;71039;49.500;10.418;2024-03-23T12:34:30;14.90;45.10
81630;DHT22;71039;49.500;10.418;2024-03-23T12:36:55;14.90;45.40
81630;DHT22;71039;49.500;10.418;2024-03-23T12:39:21;14.90;45.50
81630;DHT22;71039;49.500;10.418;2024-03-23T12:41:48;15.00;45.20
81630;DHT22;71039;49.500;10.418;2024-03-23T12:44:14;15.00;44.80
81630;DHT22;71039;49.500;10.418;2024-03-23T12:46:39;15.00;44.50
81630;DHT22;71039;49.500;10.418;2024-03-23T12:49:05;15.00;44.20
81630;DHT22;71039;49.500;10.418;2024-03-23T12:51:31;15.10;44.10
81630;DHT22;71039;49.500;10.418;2024-03-23T12:53:56;15.00;43.60
81630;DHT22;71039;49.500;10.418;2024-03-23T12:56:22;15.00;43.60
81630;DHT22;71039;49.500;10.418;2024-03-23T12:58:47;15.00;43.50
81630;DHT22;71039;49.500;10.418;2024-03-23T13:01:13;15.00;43.50
81630;DHT22;71039;49.500;10.418;2024-03-23T13:03:38;14.90;43.40
81630;DHT22;71039;49.500;10.418;2024-03-23T13:06:04;14.90;43.60
81630;DHT22;71039;49.500;10.418;2024-03-23T13:08:29;14.80;43.80
81630;DHT22;71039;49.500;10.418;2024-03-23T13:10:55;14.80;43.70
81630;DHT22;71039;49.500;10.418;2024-03-23T13:13:20;14.80;43.70
81630;DHT22;71039;49.500;10.418;2024-03-23T13:15:52;14.80;43.80
81630;DHT22;71039;49.500;10.418;2024-03-23T13:18:17;14.80;43.60
81630;DHT22;71039;49.500;10.418;2024-03-23T13:20:43;14.80;44.00
81630;DHT22;71039;49.500;10.418;2024-03-23T13:23:08;14.90;44.00
81630;DHT22;71039;49.500;10.418;2024-03-23T13:25:34;15.00;44.00
81630;DHT22;71039;49.500;10.418;2024-03-23T13:27:59;15.00;43.70
81630;DHT22;71039;49.500;10.418;2024-03-23T13:30:25;15.10;43.50
81630;DHT22;71039;49.500;10.418;2024-03-23T13:32:50;15.20;43.30
81630;DHT22;71039;49.500;10.418;2024-03-23T13:35:16;15.20;43.30
81630;DHT22;71039;49.500;10.418;2024-03-23T13:37:41;15.30;43.30
81630;DHT22;71039;49.500;10.418;2024-03-23T13:40:08;15.30;43.10
81630;DHT22;71039;49.500;10.418;2024-03-23T13:42:33;15.40;43.00
81630;DHT22;71039;49.500;10.418;2024-03-23T13:44:59;15.50;42.80
81630;DHT22;71039;49.500;10.418;2024-03-23T13:47:24;15.50;42.70
81630;DHT22;71039;49.500;10.418;2024-03-23T13:49:50;15.60;42.20
81630;DHT22;71039;49.500;10.418;2024-03-23T13:52:15;15.60;42.30
81630;DHT22;71039;49.500;10.418;2024-03-23T13:54:41;15.60;41.90
81630;DHT22;71039;49.500;10.418;2024-03-23T13:57:06;15.60;41.70
81630;DHT22;71039;49.500;10.418;2024-03-23T13:59:32;15.60;41.50
81630;DHT22;71039;49.500;10.418;2024-03-23T14:01:57;15.60;41.40
81630;DHT22;71039;49.500;10.418;2024-03-23T14:04:23;15.60;41.10
81630;DHT22;71039;49.500;10.418;2024-03-23T14:06:48;15.60;40.70
81630;DHT22;71039;49.500;10.418;2024-03-23T14:09:14;15.50;40.60
81630;DHT22;71039;49.500;10.418;2024-03-23T14:11:40;15.40;40.60
81630;DHT22;71039;49.500;10.418;2024-03-23T14:14:06;15.30;40.70
81630;DHT22;71039;49.500;10.418;2024-03-23T14:16:31;15.10;40.80
81630;DHT22;71039;49.500;10.418;2024-03-23T14:18:57;15.00;40.80
81630;DHT22;71039;49.500;10.418;2024-03-23T14:21:23;14.80;40.90
81630;DHT22;71039;49.500;10.418;2024-03-23T14:23:48;14.70;41.10
81630;DHT22;71039;49.500;10.418;2024-03-23T14:26:14;14.50;41.20
81630;DHT22;71039;49.500;10.418;2024-03-23T14:28:39;14.30;41.40
81630;DHT22;71039;49.500;10.418;2024-03-23T14:31:05;14.10;41.40
81630;DHT22;71039;49.500;10.418;2024-03-23T14:33:30;13.90;41.50
81630;DHT22;71039;49.500;10.418;2024-03-23T14:35:56;13.60;41.80
81630;DHT22;71039;49.500;10.418;2024-03-23T14:38:22;13.30;42.10
81630;DHT22;71039;49.500;10.418;2024-03-23T14:40:48;13.00;42.60
81630;DHT22;71039;49.500;10.418;2024-03-23T14:43:13;12.70;43.30
81630;DHT22;71039;49.500;10.418;2024-03-23T14:46:10;12.50;44.30
81630;DHT22;71039;49.500;10.418;2024-03-23T14:48:34;12.30;45.40
81630;DHT22;71039;49.500;10.418;2024-03-23T14:51:00;12.20;45.80
81630;DHT22;71039;49.500;10.418;2024-03-23T14:53:26;12.20;46.20
81630;DHT22;71039;49.500;10.418;2024-03-23T14:55:54;12.10;46.10
81630;DHT22;71039;49.500;10.418;2024-03-23T14:58:20;12.10;46.10
81630;DHT22;71039;49.500;10.418;2024-03-23T15:00:45;12.10;46.30
81630;DHT22;71039;49.500;10.418;2024-03-23T15:03:11;12.10;46.50
81630;DHT22;71039;49.500;10.418;2024-03-23T15:05:36;12.10;46.90
81630;DHT22;71039;49.500;10.418;2024-03-23T15:08:02;12.10;46.90
81630;DHT22;71039;49.500;10.418;2024-03-23T15:10:28;12.10;46.80
81630;DHT22;71039;49.500;10.418;2024-03-23T15:12:53;12.10;46.70
81630;DHT22;71039;49.500;10.418;2024-03-23T15:15:19;12.10;46.60
81630;DHT22;71039;49.500;10.418;2024-03-23T15:17:44;12.10;46.40
81630;DHT22;71039;49.500;10.418;2024-03-23T15:20:10;12.20;46.20
81630;DHT22;71039;49.500;10.418;2024-03-23T15:22:36;12.10;46.20
81630;DHT22;71039;49.500;10.418;2024-03-23T15:25:01;12.10;46.30
81630;DHT22;71039;49.500;10.418;2024-03-23T15:27:27;12.10;46.40
81630;DHT22;71039;49.500;10.418;2024-03-23T15:29:52;12.10;46.50
81630;DHT22;71039;49.500;10.418;2024-03-23T15:32:18;12.10;46.50
81630;DHT22;71039;49.500;10.418;2024-03-23T15:34:43;12.10;46.50
81630;DHT22;71039;49.500;10.418;2024-03-23T15:37:09;12.00;46.50
81630;DHT22;71039;49.500;10.418;2024-03-23T15:39:34;12.00;46.60
81630;DHT22;71039;49.500;10.418;2024-03-23T15:42:00;12.00;46.60
81630;DHT22;71039;49.500;10.418;2024-03-23T15:44:25;12.00;46.60
81630;DHT22;71039;49.500;10.418;2024-03-23T15:46:51;12.00;46.60
81630;DHT22;71039;49.500;10.418;2024-03-23T15:49:16;12.00;46.50
81630;DHT22;71039;49.500;10.418;2024-03-23T15:51:42;12.00;46.30
81630;DHT22;71039;49.500;10.418;2024-03-23T15:54:07;12.00;46.10
81630;DHT22;71039;49.500;10.418;2024-03-23T15:56:33;12.00;45.90
81630;DHT22;71039;49.500;10.418;2024-03-23T15:58:58;11.90;45.70
81630;DHT22;71039;49.500;10.418;2024-03-23T16:01:24;11.90;45.50
81630;DHT22;71039;49.500;10.418;2024-03-23T16:03:49;11.90;45.40
81630;DHT22;71039;49.500;10.418;2024-03-23T16:06:15;11.80;45.30
81630;DHT22;71039;49.500;10.418;2024-03-23T16:08:40;11.70;45.20
81630;DHT22;71039;49.500;10.418;2024-03-23T16:11:07;11.70;45.20
81630;DHT22;71039;49.500;10.418;2024-03-23T16:13:34;11.50;45.30
81630;DHT22;71039;49.500;10.418;2024-03-23T16:16:01;11.50;45.40